Time;durP1;ratioP1;P1;durP2;ratioP2;P2;SDS_P1;SDS_P2;PMS_P1;PMS_P2;Temp;Humidity;BMP_temperature;BMP_pressure;BME280_temperature;BME280_humidity;BME280_pressure;Samples;Min_cycle;Max_cycle;Signal;HPM_P1;HPM_P2
2021/03/18 00:01:47;;;;;;;8.20;7.50;;;-0.20;77.00;;;;;;5134584;28;20050;-66
2021/03/18 00:04:19;;;;;;;8.50;7.60;;;-0.20;78.00;;;;;;5133600;28;20053;-67
2021/03/18 00:06:51;;;;;;;8.77;7.97;;;-0.10;76.90;;;;;;5133918;28;20046;-66
2021/03/18 00:09:23;;;;;;;8.60;7.90;;;-0.20;76.50;;;;;;5133116;28;20066;-67
2021/03/18 00:11:54;;;;;;;8.73;8.02;;;-0.10;76.60;;;;;;5133370;28;20531;-67
2021/03/18 00:14:26;;;;;;;8.77;8.07;;;-0.20;77.10;;;;;;5133864;28;20043;-67
2021/03/18 00:16:58;;;;;;;8.95;8.15;;;-0.20;77.10;;;;;;5133600;28;20050;-66
2021/03/18 00:19:29;;;;;;;8.52;7.82;;;-0.20;77.60;;;;;;5134586;28;20049;-67
2021/03/18 00:22:01;;;;;;;8.70;8.00;;;-0.20;77.70;;;;;;5133265;28;20055;-67
2021/03/18 00:24:32;;;;;;;8.77;8.07;;;-0.10;76.60;;;;;;5133138;28;20054;-67
2021/03/18 00:27:04;;;;;;;9.00;8.20;;;-0.10;76.10;;;;;;5134713;28;20066;-67
2021/03/18 00:29:35;;;;;;;9.52;8.60;;;0.00;75.90;;;;;;5133762;28;20121;-70
2021/03/18 00:32:07;;;;;;;9.13;8.32;;;0.00;76.10;;;;;;5134411;28;20051;-67
2021/03/18 00:34:39;;;;;;;8.98;8.07;;;0.00;75.40;;;;;;5134535;28;20767;-68
2021/03/18 00:37:11;;;;;;;8.70;8.00;;;0.00;75.20;;;;;;5134498;28;20069;-68
2021/03/18 00:39:42;;;;;;;8.48;7.78;;;-0.10;75.40;;;;;;5134862;28;20587;-68
2021/03/18 00:42:14;;;;;;;8.75;8.05;;;-0.10;74.30;;;;;;5136498;28;20039;-69
2021/03/18 00:44:45;;;;;;;8.43;7.72;;;-0.10;74.50;;;;;;5121693;28;20520;-68
2021/03/18 00:47:18;;;;;;;8.82;8.10;;;-0.10;74.40;;;;;;5136859;28;20043;-67
2021/03/18 00:49:50;;;;;;;8.15;7.35;;;-0.10;74.00;;;;;;5122041;28;20673;-67
2021/03/18 00:52:22;;;;;;;8.82;8.00;;;-0.10;74.10;;;;;;5136291;28;20130;-67
2021/03/18 00:54:54;;;;;;;9.40;8.60;;;-0.10;74.60;;;;;;5138317;28;20157;-67
2021/03/18 00:57:25;;;;;;;8.93;8.07;;;-0.10;74.00;;;;;;5136518;28;20035;-67
2021/03/18 00:59:57;;;;;;;8.55;7.85;;;-0.10;74.20;;;;;;5136443;28;20055;-67
2021/03/18 01:02:28;;;;;;;9.50;8.70;;;0.00;74.30;;;;;;5136470;28;20549;-67
2021/03/18 01:05:00;;;;;;;9.20;8.40;;;0.00;74.60;;;;;;5137234;28;20051;-67
2021/03/18 01:07:31;;;;;;;9.23;8.40;;;0.00;74.40;;;;;;5136536;28;20061;-68
2021/03/18 01:10:07;;;;;;;9.20;8.40;;;-0.10;74.40;;;;;;5137549;28;20047;-68
2021/03/18 01:12:38;;;;;;;9.02;8.23;;;0.00;74.90;;;;;;5135089;28;20058;-67
2021/03/18 01:15:10;;;;;;;8.63;7.93;;;0.00;74.70;;;;;;5136742;28;20053;-68
2021/03/18 01:17:42;;;;;;;8.85;8.15;;;-0.10;74.60;;;;;;5136706;28;20512;-68
2021/03/18 01:20:15;;;;;;;8.50;7.80;;;-0.20;74.00;;;;;;5137712;28;20042;-67
2021/03/18 01:22:46;;;;;;;8.27;7.57;;;-0.20;75.00;;;;;;5118778;28;20038;-68
2021/03/18 01:25:18;;;;;;;8.57;7.88;;;-0.30;74.90;;;;;;5136632;28;20054;-66
2021/03/18 01:27:49;;;;;;;8.20;7.50;;;-0.30;74.50;;;;;;5119614;28;20047;-66
2021/03/18 01:30:23;;;;;;;8.52;7.82;;;-0.30;75.00;;;;;;5136267;28;20039;-67
2021/03/18 01:32:55;;;;;;;8.82;8.00;;;-0.20;74.90;;;;;;5136238;28;20043;-66
2021/03/18 01:35:27;;;;;;;8.88;8.07;;;-0.20;74.80;;;;;;5135988;28;20117;-66
2021/03/18 01:37:58;;;;;;;8.82;8.02;;;-0.20;74.50;;;;;;5135616;28;20129;-66
2021/03/18 01:40:33;;;;;;;9.25;8.45;;;-0.20;74.70;;;;;;5137195;28;20078;-66
2021/03/18 01:43:04;;;;;;;9.35;8.55;;;-0.10;74.90;;;;;;5137917;28;20062;-67
2021/03/18 01:45:36;;;;;;;9.48;8.57;;;-0.10;75.00;;;;;;5136241;28;20246;-67
2021/03/18 01:48:08;;;;;;;9.35;8.55;;;-0.20;75.50;;;;;;5135406;28;20428;-67
2021/03/18 01:50:40;;;;;;;8.77;8.07;;;-0.30;75.90;;;;;;5134465;28;20972;-66
2021/03/18 01:53:13;;;;;;;8.77;7.97;;;-0.30;75.60;;;;;;5136874;28;20051;-67
2021/03/18 01:55:46;;;;;;;9.88;8.23;;;-0.30;75.90;;;;;;5136556;28;20051;-67
2021/03/18 01:58:19;;;;;;;9.15;8.35;;;-0.20;75.70;;;;;;5137787;28;20055;-67
2021/03/18 02:00:58;;;;;;;9.18;8.38;;;-0.20;75.40;;;;;;5137355;28;20054;-67
2021/03/18 02:03:30;;;;;;;9.00;8.20;;;-0.20;75.00;;;;;;5136739;28;20043;-67
2021/03/18 02:06:03;;;;;;;8.98;8.18;;;-0.10;75.00;;;;;;5136411;28;21481;-66
2021/03/18 02:08:35;;;;;;;8.68;7.97;;;-0.10;74.60;;;;;;5136175;28;20070;-68
2021/03/18 02:11:07;;;;;;;9.30;8.48;;;-0.10;74.70;;;;;;5137178;28;20047;-67
2021/03/18 02:13:39;;;;;;;10.00;9.02;;;-0.10;74.70;;;;;;5135235;28;20047;-67
2021/03/18 02:16:12;;;;;;;9.45;8.55;;;-0.10;74.80;;;;;;5136414;28;20571;-67
2021/03/18 02:19:12;;;;;;;9.50;8.60;;;0.00;75.10;;;;;;5134646;28;20079;-67
2021/03/18 02:22:35;;;;;;;9.20;8.40;;;0.00;75.30;;;;;;5134227;28;20050;-67
2021/03/18 02:25:21;;;;;;;9.30;8.50;;;0.00;75.80;;;;;;5114226;29;20043;-66
2021/03/18 02:28:25;;;;;;;9.15;8.35;;;0.00;76.00;;;;;;5113317;28;20480;-66
2021/03/18 02:31:00;;;;;;;9.85;8.85;;;0.00;76.00;;;;;;5134776;28;20041;-66
2021/03/18 02:33:50;;;;;;;10.23;9.32;;;0.00;76.00;;;;;;5136089;28;20042;-65
2021/03/18 02:36:27;;;;;;;9.38;8.57;;;0.00;76.10;;;;;;5135494;28;20185;-66
2021/03/18 02:39:01;;;;;;;10.27;9.32;;;-0.10;75.80;;;;;;5135545;28;20082;-67
2021/03/18 02:41:55;;;;;;;10.50;9.60;;;0.00;75.90;;;;;;5137209;28;20051;-66
2021/03/18 02:44:30;;;;;;;9.98;9.05;;;0.00;75.60;;;;;;5133000;28;20086;-65
2021/03/18 02:47:09;;;;;;;10.45;8.93;;;0.00;75.50;;;;;;5135634;28;20509;-66
2021/03/18 02:49:43;;;;;;;11.00;9.93;;;-0.10;75.50;;;;;;5135413;28;20054;-66
2021/03/18 02:52:24;;;;;;;10.48;9.57;;;-0.10;75.40;;;;;;5134260;28;20633;-67
2021/03/18 02:55:03;;;;;;;11.35;10.25;;;0.00;75.30;;;;;;5136233;28;20077;-66
2021/03/18 02:57:38;;;;;;;10.43;9.43;;;0.00;75.30;;;;;;5134781;28;20039;-66
2021/03/18 03:00:11;;;;;;;10.07;9.18;;;-0.10;75.40;;;;;;5134319;28;20488;-66
2021/03/18 03:02:43;;;;;;;10.10;9.20;;;-0.10;75.70;;;;;;5136715;28;20508;-66
2021/03/18 03:05:15;;;;;;;10.95;9.85;;;-0.10;75.60;;;;;;5134260;28;20043;-66
2021/03/18 03:07:48;;;;;;;10.65;9.65;;;-0.10;75.90;;;;;;5135690;28;20035;-67
2021/03/18 03:10:21;;;;;;;10.70;9.70;;;-0.10;75.70;;;;;;5134901;28;20101;-67
2021/03/18 03:12:56;;;;;;;11.52;9.27;;;-0.10;75.60;;;;;;5136263;28;20070;-67
2021/03/18 03:15:30;;;;;;;10.50;9.50;;;0.00;75.70;;;;;;5133958;28;20057;-67
2021/03/18 03:18:06;;;;;;;11.02;10.02;;;-0.10;75.80;;;;;;5134638;28;20097;-66
2021/03/18 03:20:38;;;;;;;12.55;11.35;;;0.00;76.00;;;;;;5135691;28;20139;-68
2021/03/18 03:23:10;;;;;;;12.82;11.52;;;-0.10;76.30;;;;;;5135249;28;20381;-67
2021/03/18 03:25:41;;;;;;;11.68;10.57;;;0.00;76.00;;;;;;5133892;28;20069;-67
2021/03/18 03:28:16;;;;;;;11.63;10.43;;;0.00;76.10;;;;;;5136137;28;20129;-67
2021/03/18 03:30:48;;;;;;;11.93;10.70;;;0.00;76.20;;;;;;5135132;28;20121;-68
2021/03/18 03:33:19;;;;;;;11.35;10.27;;;0.00;76.00;;;;;;5133372;28;20047;-68
2021/03/18 03:35:51;;;;;;;11.23;10.20;;;0.10;76.20;;;;;;5133161;28;20046;-68
2021/03/18 03:38:23;;;;;;;11.45;10.40;;;0.00;76.00;;;;;;5134832;28;20543;-67
2021/03/18 03:40:55;;;;;;;11.75;10.57;;;0.10;76.30;;;;;;5133854;28;20137;-68
2021/03/18 03:43:27;;;;;;;12.32;11.13;;;0.10;76.30;;;;;;5135546;28;20538;-68
2021/03/18 03:45:58;;;;;;;11.95;10.38;;;0.10;76.40;;;;;;5134863;28;20129;-66
2021/03/18 03:48:32;;;;;;;12.00;10.80;;;0.10;76.40;;;;;;5134250;28;20050;-68
2021/03/18 03:51:04;;;;;;;11.57;10.48;;;0.10;76.30;;;;;;5133410;28;20043;-67
2021/03/18 03:53:45;;;;;;;12.48;11.25;;;0.10;76.50;;;;;;5135242;28;20078;-67
2021/03/18 03:56:33;;;;;;;12.45;11.25;;;0.10;76.30;;;;;;5131824;28;20101;-68
2021/03/18 03:59:10;;;;;;;13.00;11.63;;;0.10;76.20;;;;;;5135631;28;20089;-70
2021/03/18 04:01:45;;;;;;;12.95;11.65;;;0.10;76.30;;;;;;5134719;28;20130;-67
2021/03/18 04:04:33;;;;;;;13.65;12.27;;;0.00;76.30;;;;;;5135404;28;20840;-67
2021/03/18 04:07:10;;;;;;;13.82;12.43;;;0.10;76.70;;;;;;5149415;28;20098;-67
2021/03/18 04:09:44;;;;;;;13.02;11.68;;;0.00;76.80;;;;;;5133570;28;20054;-68
2021/03/18 04:12:21;;;;;;;14.20;12.85;;;0.00;76.70;;;;;;5134293;28;20043;-67
2021/03/18 04:14:55;;;;;;;14.00;12.43;;;0.00;76.70;;;;;;5134105;28;20047;-67
2021/03/18 04:17:30;;;;;;;14.23;12.82;;;0.00;76.70;;;;;;5134224;28;20050;-68
2021/03/18 04:20:05;;;;;;;14.82;13.15;;;-0.10;76.90;;;;;;5135062;28;20057;-67
2021/03/18 04:22:37;;;;;;;15.25;13.63;;;-0.10;76.70;;;;;;5133738;28;20042;-68
2021/03/18 04:25:10;;;;;;;15.23;13.63;;;-0.10;76.40;;;;;;5134512;28;20042;-67
2021/03/18 04:27:41;;;;;;;15.30;13.43;;;-0.10;76.30;;;;;;5132604;28;20578;-68
2021/03/18 04:30:15;;;;;;;15.43;13.35;;;-0.10;76.20;;;;;;5133955;28;20054;-67
2021/03/18 04:32:48;;;;;;;15.68;13.55;;;-0.20;76.40;;;;;;5134749;28;20047;-67
2021/03/18 04:35:21;;;;;;;15.88;14.27;;;-0.20;76.10;;;;;;5131748;28;20035;-67
2021/03/18 04:37:54;;;;;;;14.93;13.25;;;-0.20;75.60;;;;;;5134350;28;20169;-67
2021/03/18 04:40:25;;;;;;;15.88;13.20;;;-0.20;75.70;;;;;;5134227;28;20101;-68
2021/03/18 04:42:58;;;;;;;14.13;12.65;;;-0.20;75.80;;;;;;5135836;28;20050;-70
2021/03/18 04:45:32;;;;;;;15.52;12.60;;;-0.20;75.60;;;;;;5133423;28;20046;-67
2021/03/18 04:48:04;;;;;;;14.98;12.50;;;-0.10;75.30;;;;;;5135280;28;20057;-68
2021/03/18 04:50:36;;;;;;;15.55;13.60;;;-0.20;75.30;;;;;;5134512;28;20053;-68
2021/03/18 04:53:08;;;;;;;13.98;12.48;;;-0.20;75.50;;;;;;5135011;28;20039;-68
2021/03/18 04:55:40;;;;;;;14.50;13.10;;;-0.20;75.80;;;;;;5134464;28;20571;-67
2021/03/18 04:58:12;;;;;;;15.05;13.55;;;-0.20;75.70;;;;;;5134684;28;20129;-69
2021/03/18 05:00:45;;;;;;;16.08;13.63;;;-0.30;75.80;;;;;;5132921;28;20062;-68
2021/03/18 05:03:17;;;;;;;14.70;13.20;;;-0.30;75.60;;;;;;5134432;28;20535;-68
2021/03/18 05:05:51;;;;;;;14.75;13.25;;;-0.30;75.50;;;;;;5134200;28;20074;-68
2021/03/18 05:08:23;;;;;;;14.82;13.32;;;-0.30;75.60;;;;;;5134745;28;20038;-68
2021/03/18 05:10:55;;;;;;;16.55;13.85;;;-0.30;75.60;;;;;;5133208;28;20480;-67
2021/03/18 05:13:29;;;;;;;14.27;12.77;;;-0.30;75.20;;;;;;5133642;28;20141;-67
2021/03/18 05:16:03;;;;;;;14.38;12.88;;;-0.30;75.40;;;;;;5134086;28;20576;-67
2021/03/18 05:18:35;;;;;;;14.88;13.02;;;-0.30;75.20;;;;;;5132318;28;20043;-67
2021/03/18 05:21:07;;;;;;;14.82;13.07;;;-0.30;75.20;;;;;;5133490;28;20126;-67
2021/03/18 05:23:40;;;;;;;15.27;13.65;;;-0.30;75.30;;;;;;5133482;28;20062;-67
2021/03/18 05:26:12;;;;;;;14.25;12.75;;;-0.30;75.00;;;;;;5133172;28;20051;-67
2021/03/18 05:28:43;;;;;;;14.32;12.82;;;-0.30;74.80;;;;;;5133604;28;20453;-66
2021/03/18 05:31:15;;;;;;;15.32;13.35;;;-0.30;74.50;;;;;;5136573;28;20122;-67
2021/03/18 05:33:47;;;;;;;14.55;12.95;;;-0.30;74.50;;;;;;5135988;28;20043;-67
2021/03/18 05:36:19;;;;;;;14.57;13.10;;;-0.30;74.70;;;;;;5136365;28;20046;-67
2021/03/18 05:38:51;;;;;;;14.50;13.00;;;-0.30;75.10;;;;;;5136711;28;20039;-66
2021/03/18 05:41:22;;;;;;;16.90;13.65;;;-0.30;75.40;;;;;;5136563;28;20089;-67
2021/03/18 05:43:55;;;;;;;15.68;12.68;;;-0.30;76.10;;;;;;5136664;28;20050;-67
2021/03/18 05:46:27;;;;;;;14.07;12.57;;;-0.30;75.60;;;;;;5137256;28;20054;-67
2021/03/18 05:49:01;;;;;;;14.23;12.73;;;-0.30;75.50;;;;;;5136881;28;20046;-66
2021/03/18 05:51:33;;;;;;;14.48;12.40;;;-0.30;74.90;;;;;;5136801;28;20066;-66
2021/03/18 05:54:07;;;;;;;13.10;11.80;;;-0.30;74.70;;;;;;5136884;28;20061;-66
2021/03/18 05:56:39;;;;;;;14.32;12.75;;;-0.30;75.30;;;;;;5133877;28;20053;-66
2021/03/18 05:59:12;;;;;;;14.95;12.07;;;-0.30;75.20;;;;;;5135038;28;20557;-66
2021/03/18 06:01:44;;;;;;;15.18;13.02;;;-0.30;75.10;;;;;;5134558;28;20517;-66
2021/03/18 06:04:16;;;;;;;14.05;12.48;;;-0.30;75.30;;;;;;5138005;28;20632;-67
2021/03/18 06:06:48;;;;;;;14.55;12.43;;;-0.20;75.00;;;;;;5134138;28;20078;-65
2021/03/18 06:09:20;;;;;;;13.13;11.82;;;-0.10;74.60;;;;;;5136986;28;20074;-67
2021/03/18 06:11:51;;;;;;;14.40;11.90;;;-0.10;74.30;;;;;;5136231;28;20616;-66
2021/03/18 06:14:22;;;;;;;13.70;12.27;;;-0.10;74.00;;;;;;5137203;28;20039;-66
2021/03/18 06:16:54;;;;;;;14.68;12.95;;;0.00;74.20;;;;;;5134653;28;20047;-66
2021/03/18 06:19:27;;;;;;;16.77;12.73;;;0.00;74.50;;;;;;5135276;28;20079;-66
2021/03/18 06:21:59;;;;;;;14.82;12.52;;;0.10;73.70;;;;;;5135334;28;20093;-67
2021/03/18 06:24:33;;;;;;;14.13;12.75;;;0.10;73.80;;;;;;5134339;28;20050;-68
2021/03/18 06:27:04;;;;;;;15.80;12.02;;;0.10;73.40;;;;;;5132299;28;20102;-67
2021/03/18 06:29:38;;;;;;;13.80;12.35;;;0.20;73.40;;;;;;5136383;28;20130;-66
2021/03/18 06:32:12;;;;;;;15.45;12.10;;;0.20;72.90;;;;;;5130359;28;20505;-67
2021/03/18 06:34:56;;;;;;;14.30;12.40;;;0.20;72.50;;;;;;5132472;28;20039;-67
2021/03/18 06:37:43;;;;;;;15.18;12.80;;;0.30;72.60;;;;;;5131898;28;20034;-66
2021/03/18 06:40:21;;;;;;;13.65;12.07;;;0.30;72.50;;;;;;5129896;28;20067;-66
2021/03/18 06:42:58;;;;;;;15.18;12.30;;;0.40;72.40;;;;;;5133515;28;20066;-66
2021/03/18 06:45:32;;;;;;;13.85;12.32;;;0.50;72.60;;;;;;5132288;28;20742;-67
2021/03/18 06:48:07;;;;;;;14.85;12.98;;;0.70;72.50;;;;;;5132316;28;20053;-66
2021/03/18 06:50:42;;;;;;;13.50;12.07;;;0.70;71.90;;;;;;5134230;28;20101;-67
2021/03/18 06:53:24;;;;;;;13.68;12.38;;;0.90;72.10;;;;;;5134490;28;20046;-67
2021/03/18 06:55:56;;;;;;;14.02;12.63;;;1.00;71.50;;;;;;5133351;28;20050;-67
2021/03/18 06:58:29;;;;;;;15.52;13.05;;;1.10;70.90;;;;;;5134588;28;20051;-67
2021/03/18 07:01:05;;;;;;;13.90;12.50;;;1.20;70.00;;;;;;5134046;28;20053;-67
2021/03/18 07:03:39;;;;;;;13.52;12.10;;;1.10;70.10;;;;;;5135058;28;20053;-67
2021/03/18 07:06:25;;;;;;;13.60;12.30;;;1.10;69.20;;;;;;5132787;28;20049;-67
2021/03/18 07:09:07;;;;;;;13.93;12.50;;;1.10;70.20;;;;;;5136795;28;20560;-68
2021/03/18 07:11:44;;;;;;;13.20;11.90;;;1.00;70.10;;;;;;5133632;28;20043;-68
2021/03/18 07:14:30;;;;;;;12.75;11.27;;;1.10;69.80;;;;;;5134801;28;20153;-66
2021/03/18 07:17:02;;;;;;;14.35;12.85;;;1.20;69.60;;;;;;5134134;28;20054;-68
2021/03/18 07:19:35;;;;;;;14.32;12.18;;;1.40;69.30;;;;;;5130587;28;20465;-68
2021/03/18 07:22:19;;;;;;;14.02;12.65;;;1.50;69.20;;;;;;5130759;28;20054;-66
2021/03/18 07:24:54;;;;;;;13.90;12.43;;;1.70;68.70;;;;;;5131579;28;20125;-68
2021/03/18 07:27:25;;;;;;;14.05;12.75;;;1.80;66.90;;;;;;5131235;28;20129;-67
2021/03/18 07:29:57;;;;;;;13.07;11.77;;;1.90;67.60;;;;;;5132613;28;20058;-68
2021/03/18 07:32:29;;;;;;;14.48;11.85;;;2.00;67.20;;;;;;5127901;28;20634;-67
2021/03/18 07:35:00;;;;;;;13.88;12.38;;;2.00;65.60;;;;;;5131806;28;20043;-69
2021/03/18 07:37:32;;;;;;;13.63;12.23;;;1.90;65.80;;;;;;5132057;28;20050;-69
2021/03/18 07:40:05;;;;;;;13.80;12.32;;;2.00;65.50;;;;;;5133296;28;20049;-67
2021/03/18 07:42:38;;;;;;;14.05;12.65;;;2.10;66.70;;;;;;5131507;28;20042;-66
2021/03/18 07:45:10;;;;;;;14.20;12.80;;;2.30;67.10;;;;;;5131245;28;20126;-66
2021/03/18 07:47:42;;;;;;;14.02;12.63;;;2.40;67.10;;;;;;5133314;28;20046;-67
2021/03/18 07:50:24;;;;;;;14.43;12.93;;;2.60;67.10;;;;;;5134396;28;20065;-66
2021/03/18 07:52:58;;;;;;;14.30;12.90;;;2.60;66.50;;;;;;5135098;28;20460;-66
2021/03/18 07:55:32;;;;;;;14.70;13.18;;;2.60;64.80;;;;;;5132725;28;20129;-66
2021/03/18 07:58:04;;;;;;;14.38;12.90;;;2.70;65.70;;;;;;5135233;28;20051;-66
2021/03/18 08:00:39;;;;;;;15.35;13.50;;;2.70;65.40;;;;;;5134460;28;20162;-67
2021/03/18 08:03:20;;;;;;;15.57;13.98;;;2.80;66.20;;;;;;5133361;28;20066;-67
2021/03/18 08:05:51;;;;;;;15.43;13.93;;;2.90;66.00;;;;;;5134258;28;20057;-67
2021/03/18 08:08:37;;;;;;;16.77;15.15;;;2.90;64.20;;;;;;5135642;28;20061;-67
2021/03/18 08:11:17;;;;;;;15.95;14.13;;;3.00;65.10;;;;;;5133985;28;20103;-67
2021/03/18 08:13:48;;;;;;;16.75;14.77;;;3.10;65.00;;;;;;5135335;28;20050;-65
2021/03/18 08:16:25;;;;;;;18.27;14.98;;;3.10;64.20;;;;;;5134530;28;20416;-66
2021/03/18 08:18:58;;;;;;;15.82;14.32;;;3.20;63.80;;;;;;5133832;28;20058;-66
2021/03/18 08:21:50;;;;;;;15.85;14.23;;;3.20;63.30;;;;;;5133914;28;20105;-66
2021/03/18 08:24:21;;;;;;;15.73;14.23;;;3.20;63.80;;;;;;5134679;28;20083;-65
2021/03/18 08:26:58;;;;;;;16.90;15.10;;;3.30;62.70;;;;;;5132622;28;20523;-66
2021/03/18 08:29:46;;;;;;;16.50;14.90;;;3.30;63.20;;;;;;5135497;28;20895;-66
2021/03/18 08:32:24;;;;;;;17.15;15.45;;;3.40;63.70;;;;;;5134236;28;20142;-66
2021/03/18 08:34:57;;;;;;;17.05;15.30;;;3.60;62.30;;;;;;5135671;28;20081;-66
2021/03/18 08:37:41;;;;;;;15.85;14.25;;;4.00;63.20;;;;;;5132181;28;20050;-66
2021/03/18 08:40:19;;;;;;;15.80;14.30;;;4.30;62.00;;;;;;5133038;28;20090;-67
2021/03/18 08:42:53;;;;;;;15.85;14.27;;;4.70;59.40;;;;;;5135201;28;20047;-66
2021/03/18 08:45:25;;;;;;;16.20;14.60;;;5.00;60.00;;;;;;5133472;28;20098;-66
2021/03/18 08:48:06;;;;;;;17.17;15.48;;;5.30;58.90;;;;;;5134698;28;20042;-67
2021/03/18 08:50:38;;;;;;;17.08;15.38;;;5.50;59.70;;;;;;5132919;28;20098;-67
2021/03/18 08:53:28;;;;;;;17.63;15.52;;;5.70;57.10;;;;;;5134321;28;20094;-66
2021/03/18 08:55:59;;;;;;;17.10;15.43;;;5.70;57.70;;;;;;5132782;28;20836;-68
2021/03/18 08:58:44;;;;;;;17.63;15.88;;;5.80;56.60;;;;;;5134563;28;20047;-66
2021/03/18 09:01:21;;;;;;;18.63;16.73;;;5.90;56.70;;;;;;5132722;28;20174;-67
2021/03/18 09:03:55;;;;;;;18.50;16.65;;;6.00;56.70;;;;;;5136564;28;20411;-67
2021/03/18 09:06:31;;;;;;;19.05;17.08;;;6.00;56.60;;;;;;5137659;28;20482;-67
2021/03/18 09:09:05;;;;;;;18.40;16.50;;;6.00;56.70;;;;;;5138785;28;20469;-68
2021/03/18 09:11:36;;;;;;;18.30;16.40;;;6.00;56.10;;;;;;5135154;28;20050;-66
2021/03/18 09:14:15;;;;;;;18.00;16.20;;;6.00;56.80;;;;;;5138729;28;20054;-67
2021/03/18 09:16:48;;;;;;;18.92;16.48;;;5.90;56.60;;;;;;5137342;28;20524;-67
2021/03/18 09:19:19;;;;;;;17.33;15.48;;;5.90;57.60;;;;;;5135956;28;20170;-68
2021/03/18 09:21:51;;;;;;;17.13;15.43;;;5.80;57.30;;;;;;5136282;28;20043;-67
2021/03/18 09:24:23;;;;;;;16.27;14.68;;;5.70;56.10;;;;;;5137595;28;20039;-67
2021/03/18 09:27:10;;;;;;;15.80;14.20;;;5.60;57.00;;;;;;5135895;28;20043;-68
2021/03/18 09:29:43;;;;;;;16.35;14.75;;;5.60;56.80;;;;;;5137364;28;20678;-66
2021/03/18 09:32:17;;;;;;;17.52;15.73;;;5.40;57.40;;;;;;5136942;28;20058;-66
2021/03/18 09:34:50;;;;;;;17.65;15.90;;;5.30;57.70;;;;;;5138695;28;20055;-68
2021/03/18 09:37:35;;;;;;;17.40;15.60;;;5.20;57.60;;;;;;5136078;28;20046;-67
2021/03/18 09:40:11;;;;;;;16.85;15.10;;;5.20;58.10;;;;;;5136659;28;20050;-67
2021/03/18 09:42:43;;;;;;;17.73;15.85;;;5.10;58.20;;;;;;5135726;28;20484;-68
2021/03/18 09:45:19;;;;;;;18.55;16.60;;;5.10;58.40;;;;;;5137090;28;20504;-67
2021/03/18 09:47:51;;;;;;;16.83;15.15;;;5.00;58.40;;;;;;5134898;28;20394;-66
2021/03/18 09:50:26;;;;;;;18.13;15.70;;;5.00;57.30;;;;;;5135329;28;20046;-67
2021/03/18 09:53:11;;;;;;;17.42;15.63;;;4.80;58.10;;;;;;5135788;28;20031;-67
2021/03/18 09:55:42;;;;;;;17.00;15.30;;;4.70;58.00;;;;;;5135135;28;20056;-67
2021/03/18 09:58:16;;;;;;;19.45;17.35;;;4.70;59.00;;;;;;5135700;28;20038;-65
2021/03/18 10:00:48;;;;;;;16.75;15.05;;;4.60;58.90;;;;;;5136822;28;20109;-68
2021/03/18 10:03:20;;;;;;;15.98;14.30;;;4.70;59.40;;;;;;5134693;28;20770;-66
2021/03/18 10:06:06;;;;;;;16.40;14.68;;;4.60;56.40;;;;;;5132647;28;20546;-66
2021/03/18 10:08:37;;;;;;;16.83;15.02;;;4.50;59.60;;;;;;5133264;28;20124;-66
2021/03/18 10:11:13;;;;;;;18.27;16.33;;;4.70;59.90;;;;;;5132246;28;20039;-65
2021/03/18 10:13:45;;;;;;;17.58;15.77;;;4.70;58.90;;;;;;5134593;28;20468;-66
2021/03/18 10:16:17;;;;;;;17.13;15.43;;;4.80;58.20;;;;;;5133825;28;20062;-67
2021/03/18 10:18:49;;;;;;;16.45;14.82;;;4.80;57.90;;;;;;5132746;28;20038;-68
2021/03/18 10:21:20;;;;;;;15.73;14.13;;;4.90;58.00;;;;;;5134688;28;20046;-66
2021/03/18 10:23:52;;;;;;;15.05;13.52;;;5.00;57.80;;;;;;5135540;28;20058;-67
2021/03/18 10:26:25;;;;;;;15.30;13.70;;;5.00;57.50;;;;;;5133746;28;20055;-66
2021/03/18 10:29:00;;;;;;;14.70;13.20;;;5.00;58.00;;;;;;5135470;28;20126;-68
2021/03/18 10:31:34;;;;;;;14.60;13.10;;;4.70;57.40;;;;;;5136327;28;20039;-67
2021/03/18 10:34:28;;;;;;;13.98;12.48;;;4.70;59.90;;;;;;5136181;28;20448;-68
2021/03/18 10:36:59;;;;;;;15.07;13.48;;;4.60;58.30;;;;;;5135016;28;20117;-69
2021/03/18 10:39:45;;;;;;;14.57;13.07;;;4.70;58.80;;;;;;5136095;28;20035;-67
2021/03/18 10:42:29;;;;;;;14.88;13.30;;;4.90;58.60;;;;;;5134596;28;20058;-68
2021/03/18 10:45:18;;;;;;;15.80;14.00;;;4.90;55.90;;;;;;5134130;28;20500;-66
2021/03/18 10:47:53;;;;;;;15.85;14.13;;;5.00;55.70;;;;;;5135978;28;20511;-66
2021/03/18 10:50:31;;;;;;;16.75;14.88;;;5.20;55.50;;;;;;5135224;28;20058;-66
2021/03/18 10:53:06;;;;;;;16.40;14.57;;;5.50;53.80;;;;;;5132238;28;20101;-66
2021/03/18 10:55:40;;;;;;;16.48;14.38;;;5.50;55.70;;;;;;5132936;28;20123;-67
2021/03/18 10:58:17;;;;;;;16.52;14.80;;;5.40;52.50;;;;;;5135309;28;20047;-68
2021/03/18 11:01:00;;;;;;;15.70;14.07;;;5.50;55.50;;;;;;5134514;28;20042;-67
2021/03/18 11:03:37;;;;;;;15.70;14.00;;;5.60;56.60;;;;;;5135086;28;20065;-67
2021/03/18 11:06:14;;;;;;;17.20;15.43;;;5.80;55.10;;;;;;5134981;28;20058;-68
2021/03/18 11:08:54;;;;;;;17.17;14.43;;;5.90;54.70;;;;;;5135757;28;20102;-67
2021/03/18 11:11:28;;;;;;;19.42;15.60;;;5.90;56.20;;;;;;5134635;28;20802;-68
2021/03/18 11:14:12;;;;;;;16.08;14.38;;;6.00;55.70;;;;;;5135712;28;20046;-68
2021/03/18 11:16:44;;;;;;;17.20;15.35;;;6.10;55.50;;;;;;5135193;28;20066;-67
2021/03/18 11:19:21;;;;;;;18.80;15.98;;;6.10;55.70;;;;;;5136132;28;20101;-68
2021/03/18 11:22:03;;;;;;;16.73;14.77;;;6.10;56.00;;;;;;5133623;28;20066;-67
2021/03/18 11:24:35;;;;;;;16.50;14.80;;;6.00;55.40;;;;;;5135116;28;20084;-67
2021/03/18 11:27:06;;;;;;;17.05;14.98;;;6.00;55.50;;;;;;5132480;28;20173;-66
2021/03/18 11:29:38;;;;;;;15.60;13.85;;;6.00;55.10;;;;;;5136026;28;20043;-67
2021/03/18 11:32:19;;;;;;;15.73;13.93;;;6.00;55.70;;;;;;5133601;28;20428;-66
2021/03/18 11:35:00;;;;;;;15.65;14.02;;;6.00;54.70;;;;;;5134088;28;20049;-67
2021/03/18 11:37:31;;;;;;;16.95;15.02;;;5.90;54.30;;;;;;5133229;28;20120;-67
2021/03/18 11:40:05;;;;;;;14.38;12.85;;;5.80;53.40;;;;;;5133169;28;20051;-67
2021/03/18 11:42:37;;;;;;;13.40;12.00;;;5.70;52.90;;;;;;5135261;28;20109;-66
2021/03/18 11:45:09;;;;;;;14.15;12.20;;;5.60;52.30;;;;;;5133645;28;20267;-67
2021/03/18 11:47:40;;;;;;;13.38;12.02;;;5.60;51.90;;;;;;5133054;28;20031;-65
2021/03/18 11:50:13;;;;;;;15.77;13.02;;;5.50;51.20;;;;;;5131830;28;20045;-67
2021/03/18 11:52:45;;;;;;;13.88;12.48;;;5.40;51.60;;;;;;5135294;28;20035;-66
2021/03/18 11:55:16;;;;;;;14.35;12.75;;;5.30;51.60;;;;;;5129262;28;20039;-67
2021/03/18 11:57:53;;;;;;;13.55;12.18;;;5.00;52.40;;;;;;5128171;28;20039;-67
2021/03/18 12:00:28;;;;;;;13.45;12.15;;;5.00;53.50;;;;;;5128179;28;20078;-67
2021/03/18 12:03:01;;;;;;;13.90;12.43;;;5.30;52.50;;;;;;5117071;28;20053;-67
2021/03/18 12:05:43;;;;;;;15.25;13.75;;;5.60;51.10;;;;;;5133437;28;20153;-66
2021/03/18 12:08:14;;;;;;;15.27;13.68;;;5.80;52.00;;;;;;5134413;28;20118;-67
2021/03/18 12:11:06;;;;;;;14.65;13.15;;;6.10;49.80;;;;;;5133439;28;20050;-67
2021/03/18 12:13:38;;;;;;;15.32;13.82;;;6.30;52.10;;;;;;5134527;28;20062;-67
2021/03/18 12:16:09;;;;;;;15.63;14.02;;;6.70;49.20;;;;;;5130019;28;20496;-69
2021/03/18 12:18:41;;;;;;;15.75;14.18;;;7.00;48.80;;;;;;5134413;28;20039;-69
2021/03/18 12:21:12;;;;;;;16.08;14.48;;;7.30;48.10;;;;;;5132286;28;20520;-69
2021/03/18 12:23:44;;;;;;;15.73;14.20;;;7.40;47.10;;;;;;5135030;28;20054;-69
2021/03/18 12:26:16;;;;;;;16.35;14.77;;;7.70;47.70;;;;;;5131982;28;20068;-69
2021/03/18 12:28:47;;;;;;;15.70;14.20;;;8.00;44.70;;;;;;5133823;28;20496;-67
2021/03/18 12:31:18;;;;;;;16.77;15.10;;;8.20;44.90;;;;;;5132729;28;20089;-68
2021/03/18 12:33:50;;;;;;;15.55;13.90;;;8.40;45.20;;;;;;5133795;28;20416;-67
2021/03/18 12:36:22;;;;;;;14.88;13.48;;;8.60;43.40;;;;;;5134206;28;20135;-68
2021/03/18 12:38:53;;;;;;;16.35;14.65;;;8.60;43.50;;;;;;5120310;28;20043;-68
2021/03/18 12:41:34;;;;;;;;;;;8.90;43.60;;;;;;5137329;28;20047;-66
2021/03/18 12:44:06;;;;;;;16.15;14.65;;;9.20;43.20;;;;;;5137782;28;20284;-68
2021/03/18 12:46:37;;;;;;;15.93;14.48;;;9.50;42.60;;;;;;5137089;28;20058;-67
2021/03/18 12:49:10;;;;;;;16.10;14.60;;;9.40;42.70;;;;;;5136979;28;20062;-68
2021/03/18 12:51:41;;;;;;;16.55;15.02;;;9.30;41.00;;;;;;5136564;28;20058;-70
2021/03/18 12:54:13;;;;;;;17.10;15.50;;;9.00;41.90;;;;;;5137728;28;20624;-68
2021/03/18 12:56:44;;;;;;;16.80;15.20;;;8.70;41.90;;;;;;5135384;28;20551;-68
2021/03/18 12:59:16;;;;;;;17.38;15.55;;;8.20;41.90;;;;;;5135094;28;20078;-68
2021/03/18 13:01:48;;;;;;;16.13;14.73;;;8.00;44.20;;;;;;5133546;28;20513;-68
2021/03/18 13:04:21;;;;;;;16.33;14.77;;;8.30;42.20;;;;;;5134262;28;20039;-70
2021/03/18 13:06:54;;;;;;;15.10;13.75;;;8.50;42.30;;;;;;5133738;28;20448;-68
2021/03/18 13:09:27;;;;;;;15.70;14.15;;;8.50;41.80;;;;;;5134878;28;20046;-68
2021/03/18 13:11:58;;;;;;;15.57;14.18;;;8.40;43.80;;;;;;5134063;28;20047;-68
2021/03/18 13:14:31;;;;;;;15.95;14.43;;;8.20;45.70;;;;;;5134221;28;20533;-68
2021/03/18 13:17:03;;;;;;;15.95;14.55;;;8.00;44.70;;;;;;5133738;28;20472;-68